Angler Guide Weather for Repulse Bay -
Repulse Bay, Nunavut Current Weather Conditions
Enter your "Place, State", US Zip Code or ICAO:  
Forecast Information Radar Information
Repulse Bay, Nunavut, Canada  Lat: 66.53N, Lon: 86.25W
ICAO Used: CYBB
Current Conditions
Updated:
Sun & Moon Information:
Temp: N/A
Humidity: N/A
Wind Speed: N/A
Barometer: N/A
Dewpoint: N/A
Heat Index: N/A
Wind Chill: N/A
Civil Twilight: 9:39 AM EST
Moonrise: 8:19 AM EST Moon Phase:
Waning Crescent Moon
Waning Crescent Moon
Moonset: 2:31 PM EST
Sunrise: 11:28 AM EST
Sunset: 1:50 PM EST
Civil Twilight: 3:39 PM EST
Forecast for Repulse Bay, NU:
(Forecast based on TAF for )
0138 PM EST MON NOV 06 2006
  
AFTERNOONEVENING
SNOW SHOWERSNOW SHOWER
Snow
Shower
Snow
Shower
TAF based forecast:
Dated: 0138 PM EST MON NOV 06 2006
Afternoon...Mostly cloudy with winds from the west at 12 mph. Possible periods of overcast with light snow showers.
Evening...Mostly cloudy with winds from the west at 12 mph. Possible periods of overcast with light snow showers.
Original Encoded TAF:
Dated: 0138 PM EST MON NOV 06 2006
2006/11/06 18:38
CYBB 061838Z 061924 28010KT P6SM FEW020 BKN100 TEMPO 1924 4SM -SHSN OVC020=




Powered by Angler Guide.com
Copyright 2007, all rights reserved.